sensor_id;sensor_type;location;lat;lon;timestamp;P1;durP1;ratioP1;P2;durP2;ratioP2
12818;SDS011;6474;53.474;9.894;2023-05-06T00:00:35;1.03;;;1.03;;
12818;SDS011;6474;53.474;9.894;2023-05-06T00:03:03;5.10;;;1.30;;
12818;SDS011;6474;53.474;9.894;2023-05-06T00:05:32;1.30;;;1.30;;
12818;SDS011;6474;53.474;9.894;2023-05-06T00:08:02;3.20;;;1.17;;
12818;SDS011;6474;53.474;9.894;2023-05-06T00:10:30;1.43;;;1.33;;
12818;SDS011;6474;53.474;9.894;2023-05-06T00:12:58;1.30;;;1.30;;
12818;SDS011;6474;53.474;9.894;2023-05-06T00:15:26;1.10;;;1.10;;
12818;SDS011;6474;53.474;9.894;2023-05-06T00:17:57;1.33;;;1.23;;
12818;SDS011;6474;53.474;9.894;2023-05-06T00:20:25;1.17;;;1.17;;
12818;SDS011;6474;53.474;9.894;2023-05-06T00:22:53;1.43;;;1.43;;
12818;SDS011;6474;53.474;9.894;2023-05-06T00:25:22;3.40;;;1.53;;
12818;SDS011;6474;53.474;9.894;2023-05-06T00:27:50;1.50;;;1.50;;
12818;SDS011;6474;53.474;9.894;2023-05-06T00:30:19;1.27;;;1.27;;
12818;SDS011;6474;53.474;9.894;2023-05-06T00:32:47;1.33;;;1.33;;
12818;SDS011;6474;53.474;9.894;2023-05-06T00:35:15;1.60;;;1.50;;
12818;SDS011;6474;53.474;9.894;2023-05-06T00:37:43;1.30;;;1.30;;
12818;SDS011;6474;53.474;9.894;2023-05-06T00:40:12;1.80;;;1.70;;
12818;SDS011;6474;53.474;9.894;2023-05-06T00:42:41;1.10;;;1.10;;
12818;SDS011;6474;53.474;9.894;2023-05-06T00:45:09;1.23;;;1.23;;
12818;SDS011;6474;53.474;9.894;2023-05-06T00:47:37;2.87;;;1.30;;
12818;SDS011;6474;53.474;9.894;2023-05-06T00:50:06;1.50;;;1.40;;
12818;SDS011;6474;53.474;9.894;2023-05-06T00:52:35;1.77;;;1.67;;
12818;SDS011;6474;53.474;9.894;2023-05-06T00:55:03;1.80;;;1.67;;
12818;SDS011;6474;53.474;9.894;2023-05-06T00:57:31;1.03;;;1.03;;
12818;SDS011;6474;53.474;9.894;2023-05-06T01:00:00;1.10;;;1.10;;
12818;SDS011;6474;53.474;9.894;2023-05-06T01:02:28;1.20;;;1.20;;
12818;SDS011;6474;53.474;9.894;2023-05-06T01:05:13;1.93;;;1.73;;
12818;SDS011;6474;53.474;9.894;2023-05-06T01:07:43;2.00;;;1.80;;
12818;SDS011;6474;53.474;9.894;2023-05-06T01:10:18;1.13;;;1.13;;
12818;SDS011;6474;53.474;9.894;2023-05-06T01:12:52;1.50;;;1.40;;
12818;SDS011;6474;53.474;9.894;2023-05-06T01:15:30;2.07;;;1.57;;
12818;SDS011;6474;53.474;9.894;2023-05-06T01:18:00;1.30;;;1.30;;
12818;SDS011;6474;53.474;9.894;2023-05-06T01:20:34;3.47;;;1.83;;
12818;SDS011;6474;53.474;9.894;2023-05-06T01:23:09;1.23;;;1.23;;
12818;SDS011;6474;53.474;9.894;2023-05-06T01:25:38;1.10;;;1.00;;
12818;SDS011;6474;53.474;9.894;2023-05-06T01:28:06;1.20;;;1.20;;
12818;SDS011;6474;53.474;9.894;2023-05-06T01:30:38;1.10;;;1.10;;
12818;SDS011;6474;53.474;9.894;2023-05-06T01:33:14;1.37;;;1.30;;
12818;SDS011;6474;53.474;9.894;2023-05-06T01:35:48;1.23;;;1.23;;
12818;SDS011;6474;53.474;9.894;2023-05-06T01:38:24;5.70;;;1.80;;
12818;SDS011;6474;53.474;9.894;2023-05-06T01:40:58;1.17;;;1.17;;
12818;SDS011;6474;53.474;9.894;2023-05-06T01:43:28;1.50;;;1.50;;
12818;SDS011;6474;53.474;9.894;2023-05-06T01:45:59;1.40;;;1.40;;
12818;SDS011;6474;53.474;9.894;2023-05-06T01:48:29;1.60;;;1.60;;
12818;SDS011;6474;53.474;9.894;2023-05-06T01:50:59;1.17;;;1.17;;
12818;SDS011;6474;53.474;9.894;2023-05-06T01:53:30;3.23;;;1.60;;
12818;SDS011;6474;53.474;9.894;2023-05-06T01:55:58;1.90;;;1.80;;
12818;SDS011;6474;53.474;9.894;2023-05-06T01:58:25;1.60;;;1.60;;
12818;SDS011;6474;53.474;9.894;2023-05-06T02:00:53;1.70;;;1.60;;
12818;SDS011;6474;53.474;9.894;2023-05-06T02:03:21;1.90;;;1.80;;
12818;SDS011;6474;53.474;9.894;2023-05-06T02:05:49;1.50;;;1.40;;
12818;SDS011;6474;53.474;9.894;2023-05-06T02:08:18;1.77;;;1.73;;
12818;SDS011;6474;53.474;9.894;2023-05-06T02:10:47;2.10;;;1.90;;
12818;SDS011;6474;53.474;9.894;2023-05-06T02:13:16;1.80;;;1.80;;
12818;SDS011;6474;53.474;9.894;2023-05-06T02:15:45;2.40;;;1.80;;
12818;SDS011;6474;53.474;9.894;2023-05-06T02:18:13;2.10;;;2.00;;
12818;SDS011;6474;53.474;9.894;2023-05-06T02:20:40;1.57;;;1.57;;
12818;SDS011;6474;53.474;9.894;2023-05-06T02:23:08;1.90;;;1.80;;
12818;SDS011;6474;53.474;9.894;2023-05-06T02:25:36;1.90;;;1.47;;
12818;SDS011;6474;53.474;9.894;2023-05-06T02:28:05;1.77;;;1.70;;
12818;SDS011;6474;53.474;9.894;2023-05-06T02:30:33;1.43;;;1.43;;
12818;SDS011;6474;53.474;9.894;2023-05-06T02:33:01;1.77;;;1.67;;
12818;SDS011;6474;53.474;9.894;2023-05-06T02:35:29;1.37;;;1.37;;
12818;SDS011;6474;53.474;9.894;2023-05-06T02:37:57;1.73;;;1.63;;
12818;SDS011;6474;53.474;9.894;2023-05-06T02:40:25;2.50;;;1.57;;
12818;SDS011;6474;53.474;9.894;2023-05-06T02:42:53;1.97;;;1.87;;
12818;SDS011;6474;53.474;9.894;2023-05-06T02:45:22;2.30;;;2.20;;
12818;SDS011;6474;53.474;9.894;2023-05-06T02:47:50;1.60;;;1.60;;
12818;SDS011;6474;53.474;9.894;2023-05-06T02:50:18;1.63;;;1.53;;
12818;SDS011;6474;53.474;9.894;2023-05-06T02:52:45;1.63;;;1.60;;
12818;SDS011;6474;53.474;9.894;2023-05-06T02:55:13;1.67;;;1.60;;
12818;SDS011;6474;53.474;9.894;2023-05-06T02:57:41;2.17;;;1.97;;
12818;SDS011;6474;53.474;9.894;2023-05-06T03:00:10;2.83;;;2.63;;
12818;SDS011;6474;53.474;9.894;2023-05-06T03:02:39;1.80;;;1.80;;
12818;SDS011;6474;53.474;9.894;2023-05-06T03:05:08;4.83;;;1.90;;
12818;SDS011;6474;53.474;9.894;2023-05-06T03:07:36;2.10;;;2.00;;
12818;SDS011;6474;53.474;9.894;2023-05-06T03:10:05;1.37;;;1.37;;
12818;SDS011;6474;53.474;9.894;2023-05-06T03:12:33;10.13;;;1.93;;
12818;SDS011;6474;53.474;9.894;2023-05-06T03:15:01;1.37;;;1.37;;
12818;SDS011;6474;53.474;9.894;2023-05-06T03:17:29;1.97;;;1.93;;
12818;SDS011;6474;53.474;9.894;2023-05-06T03:19:58;1.83;;;1.80;;
12818;SDS011;6474;53.474;9.894;2023-05-06T03:22:26;1.70;;;1.70;;
12818;SDS011;6474;53.474;9.894;2023-05-06T03:24:54;2.00;;;1.90;;
12818;SDS011;6474;53.474;9.894;2023-05-06T03:27:22;1.70;;;1.70;;
12818;SDS011;6474;53.474;9.894;2023-05-06T03:29:50;6.77;;;2.00;;
12818;SDS011;6474;53.474;9.894;2023-05-06T03:32:18;1.90;;;1.80;;
12818;SDS011;6474;53.474;9.894;2023-05-06T03:34:46;2.00;;;2.00;;
12818;SDS011;6474;53.474;9.894;2023-05-06T03:37:15;2.10;;;1.90;;
12818;SDS011;6474;53.474;9.894;2023-05-06T03:39:43;1.60;;;1.60;;
12818;SDS011;6474;53.474;9.894;2023-05-06T03:42:10;1.53;;;1.53;;
12818;SDS011;6474;53.474;9.894;2023-05-06T03:44:38;6.60;;;2.43;;
12818;SDS011;6474;53.474;9.894;2023-05-06T03:47:06;2.10;;;2.00;;
12818;SDS011;6474;53.474;9.894;2023-05-06T03:49:34;1.70;;;1.70;;
12818;SDS011;6474;53.474;9.894;2023-05-06T03:52:02;3.60;;;1.67;;
12818;SDS011;6474;53.474;9.894;2023-05-06T03:54:31;1.73;;;1.53;;
12818;SDS011;6474;53.474;9.894;2023-05-06T03:56:59;1.80;;;1.80;;
12818;SDS011;6474;53.474;9.894;2023-05-06T03:59:27;3.63;;;1.93;;
12818;SDS011;6474;53.474;9.894;2023-05-06T04:01:55;2.27;;;2.07;;
12818;SDS011;6474;53.474;9.894;2023-05-06T04:04:23;2.33;;;2.00;;
12818;SDS011;6474;53.474;9.894;2023-05-06T04:06:52;2.03;;;1.87;;
12818;SDS011;6474;53.474;9.894;2023-05-06T04:09:20;2.83;;;2.30;;
12818;SDS011;6474;53.474;9.894;2023-05-06T04:11:49;2.33;;;2.23;;
12818;SDS011;6474;53.474;9.894;2023-05-06T04:14:17;1.73;;;1.73;;
12818;SDS011;6474;53.474;9.894;2023-05-06T04:16:44;2.53;;;2.30;;
12818;SDS011;6474;53.474;9.894;2023-05-06T04:19:12;2.30;;;2.20;;
12818;SDS011;6474;53.474;9.894;2023-05-06T04:21:40;1.77;;;1.70;;
12818;SDS011;6474;53.474;9.894;2023-05-06T04:24:08;1.90;;;1.90;;
12818;SDS011;6474;53.474;9.894;2023-05-06T04:26:36;1.83;;;1.67;;
12818;SDS011;6474;53.474;9.894;2023-05-06T04:29:05;1.27;;;1.27;;
12818;SDS011;6474;53.474;9.894;2023-05-06T04:31:33;2.07;;;2.00;;
12818;SDS011;6474;53.474;9.894;2023-05-06T04:34:02;1.70;;;1.60;;
12818;SDS011;6474;53.474;9.894;2023-05-06T04:36:30;2.33;;;2.13;;
12818;SDS011;6474;53.474;9.894;2023-05-06T04:38:57;1.87;;;1.77;;
12818;SDS011;6474;53.474;9.894;2023-05-06T04:41:26;2.27;;;2.17;;
12818;SDS011;6474;53.474;9.894;2023-05-06T04:43:56;2.17;;;2.00;;
12818;SDS011;6474;53.474;9.894;2023-05-06T04:46:25;3.13;;;1.83;;
12818;SDS011;6474;53.474;9.894;2023-05-06T04:48:53;2.20;;;2.10;;
12818;SDS011;6474;53.474;9.894;2023-05-06T04:51:22;2.20;;;2.10;;
12818;SDS011;6474;53.474;9.894;2023-05-06T04:53:49;2.23;;;2.13;;
12818;SDS011;6474;53.474;9.894;2023-05-06T04:56:18;3.33;;;1.87;;
12818;SDS011;6474;53.474;9.894;2023-05-06T04:58:46;3.87;;;1.80;;
12818;SDS011;6474;53.474;9.894;2023-05-06T05:01:13;1.87;;;1.80;;
12818;SDS011;6474;53.474;9.894;2023-05-06T05:03:43;2.33;;;2.20;;
12818;SDS011;6474;53.474;9.894;2023-05-06T05:06:11;1.47;;;1.37;;
12818;SDS011;6474;53.474;9.894;2023-05-06T05:08:39;2.07;;;1.97;;
12818;SDS011;6474;53.474;9.894;2023-05-06T05:11:06;3.03;;;2.20;;
12818;SDS011;6474;53.474;9.894;2023-05-06T05:13:34;2.27;;;2.17;;
12818;SDS011;6474;53.474;9.894;2023-05-06T05:16:04;2.47;;;2.40;;
12818;SDS011;6474;53.474;9.894;2023-05-06T05:18:32;1.97;;;1.87;;
12818;SDS011;6474;53.474;9.894;2023-05-06T05:21:01;2.37;;;2.20;;
12818;SDS011;6474;53.474;9.894;2023-05-06T05:23:29;2.40;;;2.30;;
12818;SDS011;6474;53.474;9.894;2023-05-06T05:25:56;2.37;;;2.20;;
12818;SDS011;6474;53.474;9.894;2023-05-06T05:28:25;2.13;;;2.03;;
12818;SDS011;6474;53.474;9.894;2023-05-06T05:30:53;3.20;;;2.10;;
12818;SDS011;6474;53.474;9.894;2023-05-06T05:33:21;3.10;;;2.63;;
12818;SDS011;6474;53.474;9.894;2023-05-06T05:35:48;2.00;;;2.00;;
12818;SDS011;6474;53.474;9.894;2023-05-06T05:38:17;2.20;;;2.10;;
12818;SDS011;6474;53.474;9.894;2023-05-06T05:40:45;2.40;;;2.30;;
12818;SDS011;6474;53.474;9.894;2023-05-06T05:43:13;2.20;;;1.97;;
12818;SDS011;6474;53.474;9.894;2023-05-06T05:45:41;2.60;;;2.50;;
12818;SDS011;6474;53.474;9.894;2023-05-06T05:48:08;2.23;;;2.13;;
12818;SDS011;6474;53.474;9.894;2023-05-06T05:50:36;1.97;;;1.87;;
12818;SDS011;6474;53.474;9.894;2023-05-06T05:53:04;2.43;;;2.33;;
12818;SDS011;6474;53.474;9.894;2023-05-06T05:55:33;1.90;;;1.90;;
12818;SDS011;6474;53.474;9.894;2023-05-06T05:58:01;3.70;;;1.97;;
12818;SDS011;6474;53.474;9.894;2023-05-06T06:00:28;2.13;;;2.03;;
12818;SDS011;6474;53.474;9.894;2023-05-06T06:02:57;2.40;;;2.30;;
12818;SDS011;6474;53.474;9.894;2023-05-06T06:05:25;5.50;;;2.43;;
12818;SDS011;6474;53.474;9.894;2023-05-06T06:07:53;2.37;;;2.23;;
12818;SDS011;6474;53.474;9.894;2023-05-06T06:10:20;2.43;;;1.97;;
12818;SDS011;6474;53.474;9.894;2023-05-06T06:12:49;2.27;;;2.17;;
12818;SDS011;6474;53.474;9.894;2023-05-06T06:15:17;1.97;;;1.97;;
12818;SDS011;6474;53.474;9.894;2023-05-06T06:17:45;2.60;;;2.27;;
12818;SDS011;6474;53.474;9.894;2023-05-06T06:20:13;3.33;;;2.10;;
12818;SDS011;6474;53.474;9.894;2023-05-06T06:22:41;2.30;;;2.20;;
12818;SDS011;6474;53.474;9.894;2023-05-06T06:25:09;2.83;;;2.47;;
12818;SDS011;6474;53.474;9.894;2023-05-06T06:27:37;2.73;;;2.53;;
12818;SDS011;6474;53.474;9.894;2023-05-06T06:30:07;6.90;;;2.43;;
12818;SDS011;6474;53.474;9.894;2023-05-06T06:32:35;2.63;;;2.47;;
12818;SDS011;6474;53.474;9.894;2023-05-06T06:35:05;2.47;;;2.27;;
12818;SDS011;6474;53.474;9.894;2023-05-06T06:37:33;2.20;;;2.00;;
12818;SDS011;6474;53.474;9.894;2023-05-06T06:40:01;4.73;;;2.70;;
12818;SDS011;6474;53.474;9.894;2023-05-06T06:42:29;2.07;;;1.97;;
12818;SDS011;6474;53.474;9.894;2023-05-06T06:44:56;2.20;;;2.10;;
12818;SDS011;6474;53.474;9.894;2023-05-06T06:47:25;4.73;;;2.47;;
12818;SDS011;6474;53.474;9.894;2023-05-06T06:49:53;5.13;;;2.30;;
12818;SDS011;6474;53.474;9.894;2023-05-06T06:52:21;2.90;;;2.70;;
12818;SDS011;6474;53.474;9.894;2023-05-06T06:54:49;3.47;;;2.20;;
12818;SDS011;6474;53.474;9.894;2023-05-06T06:57:17;3.00;;;2.80;;
12818;SDS011;6474;53.474;9.894;2023-05-06T06:59:44;1.93;;;1.83;;
12818;SDS011;6474;53.474;9.894;2023-05-06T07:02:13;1.80;;;1.70;;
12818;SDS011;6474;53.474;9.894;2023-05-06T07:04:42;2.33;;;2.23;;
12818;SDS011;6474;53.474;9.894;2023-05-06T07:07:10;3.00;;;2.13;;
12818;SDS011;6474;53.474;9.894;2023-05-06T07:09:38;4.53;;;2.97;;
12818;SDS011;6474;53.474;9.894;2023-05-06T07:12:06;2.77;;;2.57;;
12818;SDS011;6474;53.474;9.894;2023-05-06T07:14:34;2.57;;;2.40;;
12818;SDS011;6474;53.474;9.894;2023-05-06T07:17:02;2.33;;;2.23;;
12818;SDS011;6474;53.474;9.894;2023-05-06T07:19:30;3.93;;;2.73;;
12818;SDS011;6474;53.474;9.894;2023-05-06T07:21:59;4.93;;;2.87;;
12818;SDS011;6474;53.474;9.894;2023-05-06T07:24:28;3.23;;;2.50;;
12818;SDS011;6474;53.474;9.894;2023-05-06T07:26:56;3.03;;;2.83;;
12818;SDS011;6474;53.474;9.894;2023-05-06T07:29:24;3.33;;;2.60;;
12818;SDS011;6474;53.474;9.894;2023-05-06T07:31:52;2.60;;;2.40;;
12818;SDS011;6474;53.474;9.894;2023-05-06T07:34:19;2.80;;;2.60;;
12818;SDS011;6474;53.474;9.894;2023-05-06T07:36:47;3.17;;;2.80;;
12818;SDS011;6474;53.474;9.894;2023-05-06T07:39:17;2.70;;;2.50;;
12818;SDS011;6474;53.474;9.894;2023-05-06T07:41:44;3.53;;;3.00;;
12818;SDS011;6474;53.474;9.894;2023-05-06T07:44:12;3.70;;;2.70;;
12818;SDS011;6474;53.474;9.894;2023-05-06T07:46:40;3.17;;;2.90;;
12818;SDS011;6474;53.474;9.894;2023-05-06T07:49:08;2.80;;;2.60;;
12818;SDS011;6474;53.474;9.894;2023-05-06T07:51:36;2.27;;;2.07;;
12818;SDS011;6474;53.474;9.894;2023-05-06T07:54:03;3.23;;;3.03;;
12818;SDS011;6474;53.474;9.894;2023-05-06T07:56:33;2.47;;;2.37;;
12818;SDS011;6474;53.474;9.894;2023-05-06T07:59:00;2.63;;;2.43;;
12818;SDS011;6474;53.474;9.894;2023-05-06T08:01:28;2.90;;;2.70;;
12818;SDS011;6474;53.474;9.894;2023-05-06T08:03:56;5.70;;;2.83;;
12818;SDS011;6474;53.474;9.894;2023-05-06T08:06:25;3.63;;;2.90;;
12818;SDS011;6474;53.474;9.894;2023-05-06T08:08:53;3.07;;;2.97;;
12818;SDS011;6474;53.474;9.894;2023-05-06T08:11:21;5.77;;;3.50;;
12818;SDS011;6474;53.474;9.894;2023-05-06T08:13:50;3.17;;;2.87;;
12818;SDS011;6474;53.474;9.894;2023-05-06T08:16:18;3.00;;;2.90;;
12818;SDS011;6474;53.474;9.894;2023-05-06T08:18:49;4.00;;;3.23;;
12818;SDS011;6474;53.474;9.894;2023-05-06T08:21:17;3.27;;;2.87;;
12818;SDS011;6474;53.474;9.894;2023-05-06T08:23:45;2.83;;;2.63;;
12818;SDS011;6474;53.474;9.894;2023-05-06T08:26:13;6.17;;;3.13;;
12818;SDS011;6474;53.474;9.894;2023-05-06T08:28:40;3.40;;;3.10;;
12818;SDS011;6474;53.474;9.894;2023-05-06T08:31:10;4.10;;;3.47;;
12818;SDS011;6474;53.474;9.894;2023-05-06T08:33:37;3.03;;;2.80;;
12818;SDS011;6474;53.474;9.894;2023-05-06T08:36:06;6.73;;;3.30;;
12818;SDS011;6474;53.474;9.894;2023-05-06T08:38:33;3.40;;;3.10;;
12818;SDS011;6474;53.474;9.894;2023-05-06T08:41:03;4.83;;;2.40;;
12818;SDS011;6474;53.474;9.894;2023-05-06T08:43:39;2.47;;;2.37;;
12818;SDS011;6474;53.474;9.894;2023-05-06T08:46:07;3.17;;;2.80;;
12818;SDS011;6474;53.474;9.894;2023-05-06T08:48:37;3.30;;;3.00;;
12818;SDS011;6474;53.474;9.894;2023-05-06T08:51:05;3.67;;;2.77;;
12818;SDS011;6474;53.474;9.894;2023-05-06T08:53:34;3.67;;;2.93;;
12818;SDS011;6474;53.474;9.894;2023-05-06T08:56:02;3.00;;;2.80;;
12818;SDS011;6474;53.474;9.894;2023-05-06T08:58:34;2.90;;;2.70;;
12818;SDS011;6474;53.474;9.894;2023-05-06T09:01:03;6.20;;;2.50;;
12818;SDS011;6474;53.474;9.894;2023-05-06T09:03:33;2.70;;;2.53;;
12818;SDS011;6474;53.474;9.894;2023-05-06T09:06:01;2.87;;;2.67;;
12818;SDS011;6474;53.474;9.894;2023-05-06T09:08:29;2.97;;;2.87;;
12818;SDS011;6474;53.474;9.894;2023-05-06T09:10:57;3.07;;;2.70;;
12818;SDS011;6474;53.474;9.894;2023-05-06T09:13:25;3.83;;;3.60;;
12818;SDS011;6474;53.474;9.894;2023-05-06T09:15:53;3.37;;;3.07;;
12818;SDS011;6474;53.474;9.894;2023-05-06T09:18:21;3.10;;;2.83;;
12818;SDS011;6474;53.474;9.894;2023-05-06T09:20:50;3.00;;;2.77;;
12818;SDS011;6474;53.474;9.894;2023-05-06T09:23:18;4.07;;;2.87;;
12818;SDS011;6474;53.474;9.894;2023-05-06T09:25:48;6.27;;;3.33;;
12818;SDS011;6474;53.474;9.894;2023-05-06T09:28:16;3.37;;;3.07;;
12818;SDS011;6474;53.474;9.894;2023-05-06T09:30:44;3.53;;;3.23;;
12818;SDS011;6474;53.474;9.894;2023-05-06T09:33:13;2.90;;;2.70;;
12818;SDS011;6474;53.474;9.894;2023-05-06T09:35:41;3.53;;;3.23;;
12818;SDS011;6474;53.474;9.894;2023-05-06T09:38:12;2.30;;;2.20;;
12818;SDS011;6474;53.474;9.894;2023-05-06T09:40:41;2.83;;;2.30;;
12818;SDS011;6474;53.474;9.894;2023-05-06T09:43:08;4.03;;;3.23;;
12818;SDS011;6474;53.474;9.894;2023-05-06T09:45:37;3.63;;;3.10;;
12818;SDS011;6474;53.474;9.894;2023-05-06T09:48:05;3.37;;;3.00;;
12818;SDS011;6474;53.474;9.894;2023-05-06T09:50:35;3.87;;;3.57;;
12818;SDS011;6474;53.474;9.894;2023-05-06T09:53:03;6.97;;;3.63;;
12818;SDS011;6474;53.474;9.894;2023-05-06T09:55:33;3.57;;;3.10;;
12818;SDS011;6474;53.474;9.894;2023-05-06T09:58:01;5.30;;;3.23;;
12818;SDS011;6474;53.474;9.894;2023-05-06T10:00:30;3.27;;;3.07;;
12818;SDS011;6474;53.474;9.894;2023-05-06T10:02:58;5.23;;;3.47;;
12818;SDS011;6474;53.474;9.894;2023-05-06T10:05:27;3.53;;;3.13;;
12818;SDS011;6474;53.474;9.894;2023-05-06T10:07:57;6.97;;;3.27;;
12818;SDS011;6474;53.474;9.894;2023-05-06T10:10:26;3.93;;;3.37;;
12818;SDS011;6474;53.474;9.894;2023-05-06T10:12:57;3.43;;;3.20;;
12818;SDS011;6474;53.474;9.894;2023-05-06T10:15:25;4.47;;;4.17;;
12818;SDS011;6474;53.474;9.894;2023-05-06T10:17:53;3.53;;;3.23;;
12818;SDS011;6474;53.474;9.894;2023-05-06T10:20:22;3.77;;;3.47;;
12818;SDS011;6474;53.474;9.894;2023-05-06T10:22:55;4.17;;;3.70;;
12818;SDS011;6474;53.474;9.894;2023-05-06T10:25:31;3.67;;;3.47;;
12818;SDS011;6474;53.474;9.894;2023-05-06T10:28:04;4.20;;;3.83;;
12818;SDS011;6474;53.474;9.894;2023-05-06T10:30:44;5.03;;;3.20;;
12818;SDS011;6474;53.474;9.894;2023-05-06T10:33:14;5.53;;;4.17;;
12818;SDS011;6474;53.474;9.894;2023-05-06T10:35:47;3.43;;;3.13;;
12818;SDS011;6474;53.474;9.894;2023-05-06T10:38:21;4.67;;;3.63;;
12818;SDS011;6474;53.474;9.894;2023-05-06T10:40:52;4.43;;;3.20;;
12818;SDS011;6474;53.474;9.894;2023-05-06T10:43:23;4.27;;;3.77;;
12818;SDS011;6474;53.474;9.894;2023-05-06T10:46:03;3.40;;;3.10;;
12818;SDS011;6474;53.474;9.894;2023-05-06T10:48:34;6.13;;;4.10;;
12818;SDS011;6474;53.474;9.894;2023-05-06T10:53:54;4.33;;;4.03;;
12818;SDS011;6474;53.474;9.894;2023-05-06T10:56:28;6.13;;;4.70;;
12818;SDS011;6474;53.474;9.894;2023-05-06T10:59:01;3.10;;;2.90;;
12818;SDS011;6474;53.474;9.894;2023-05-06T11:01:33;3.83;;;3.53;;
12818;SDS011;6474;53.474;9.894;2023-05-06T11:04:05;4.00;;;3.30;;
12818;SDS011;6474;53.474;9.894;2023-05-06T11:06:35;3.07;;;2.87;;
12818;SDS011;6474;53.474;9.894;2023-05-06T11:09:04;5.07;;;3.93;;
12818;SDS011;6474;53.474;9.894;2023-05-06T11:11:45;4.67;;;3.83;;
12818;SDS011;6474;53.474;9.894;2023-05-06T11:14:23;3.97;;;3.60;;
12818;SDS011;6474;53.474;9.894;2023-05-06T11:16:53;3.80;;;3.60;;
12818;SDS011;6474;53.474;9.894;2023-05-06T11:19:23;7.97;;;3.80;;
12818;SDS011;6474;53.474;9.894;2023-05-06T11:21:52;3.73;;;3.47;;
12818;SDS011;6474;53.474;9.894;2023-05-06T11:24:23;5.27;;;3.83;;
12818;SDS011;6474;53.474;9.894;2023-05-06T11:26:53;6.87;;;4.13;;
12818;SDS011;6474;53.474;9.894;2023-05-06T11:29:23;5.40;;;3.27;;
12818;SDS011;6474;53.474;9.894;2023-05-06T11:31:52;6.50;;;3.23;;
12818;SDS011;6474;53.474;9.894;2023-05-06T11:34:21;4.03;;;3.60;;
12818;SDS011;6474;53.474;9.894;2023-05-06T11:36:54;10.10;;;4.20;;
12818;SDS011;6474;53.474;9.894;2023-05-06T11:39:25;6.17;;;4.07;;
12818;SDS011;6474;53.474;9.894;2023-05-06T11:42:01;6.33;;;3.80;;
12818;SDS011;6474;53.474;9.894;2023-05-06T11:44:32;8.20;;;4.67;;
12818;SDS011;6474;53.474;9.894;2023-05-06T11:47:02;6.53;;;3.70;;
12818;SDS011;6474;53.474;9.894;2023-05-06T11:49:34;5.20;;;4.30;;
12818;SDS011;6474;53.474;9.894;2023-05-06T11:52:03;3.53;;;3.23;;
12818;SDS011;6474;53.474;9.894;2023-05-06T11:54:32;7.47;;;4.00;;
12818;SDS011;6474;53.474;9.894;2023-05-06T11:57:01;4.60;;;3.77;;
12818;SDS011;6474;53.474;9.894;2023-05-06T11:59:29;5.43;;;4.00;;
12818;SDS011;6474;53.474;9.894;2023-05-06T12:02:00;4.17;;;3.77;;
12818;SDS011;6474;53.474;9.894;2023-05-06T12:04:35;6.20;;;4.03;;
12818;SDS011;6474;53.474;9.894;2023-05-06T12:07:05;5.27;;;3.53;;
12818;SDS011;6474;53.474;9.894;2023-05-06T12:09:34;4.83;;;3.97;;
12818;SDS011;6474;53.474;9.894;2023-05-06T12:12:03;7.37;;;3.60;;
12818;SDS011;6474;53.474;9.894;2023-05-06T12:14:33;4.23;;;3.87;;
12818;SDS011;6474;53.474;9.894;2023-05-06T12:17:02;4.90;;;3.83;;
12818;SDS011;6474;53.474;9.894;2023-05-06T12:19:30;3.50;;;3.20;;
12818;SDS011;6474;53.474;9.894;2023-05-06T12:22:12;8.90;;;3.37;;
12818;SDS011;6474;53.474;9.894;2023-05-06T12:24:41;6.07;;;3.77;;
12818;SDS011;6474;53.474;9.894;2023-05-06T12:27:08;3.67;;;3.33;;
12818;SDS011;6474;53.474;9.894;2023-05-06T12:29:38;4.33;;;3.87;;
12818;SDS011;6474;53.474;9.894;2023-05-06T12:32:06;8.63;;;4.33;;
12818;SDS011;6474;53.474;9.894;2023-05-06T12:34:36;6.07;;;3.37;;
12818;SDS011;6474;53.474;9.894;2023-05-06T12:37:04;4.33;;;3.63;;
12818;SDS011;6474;53.474;9.894;2023-05-06T12:39:33;4.40;;;4.00;;
12818;SDS011;6474;53.474;9.894;2023-05-06T12:42:01;4.87;;;4.37;;
12818;SDS011;6474;53.474;9.894;2023-05-06T12:44:33;5.23;;;3.97;;
12818;SDS011;6474;53.474;9.894;2023-05-06T12:47:07;3.20;;;2.90;;
12818;SDS011;6474;53.474;9.894;2023-05-06T12:49:45;4.33;;;3.43;;
12818;SDS011;6474;53.474;9.894;2023-05-06T12:52:13;4.73;;;3.70;;
12818;SDS011;6474;53.474;9.894;2023-05-06T12:54:43;3.93;;;3.57;;
12818;SDS011;6474;53.474;9.894;2023-05-06T12:57:11;6.37;;;3.47;;
12818;SDS011;6474;53.474;9.894;2023-05-06T12:59:39;5.93;;;3.70;;
12818;SDS011;6474;53.474;9.894;2023-05-06T13:02:08;4.93;;;3.73;;
12818;SDS011;6474;53.474;9.894;2023-05-06T13:04:36;3.53;;;3.23;;
12818;SDS011;6474;53.474;9.894;2023-05-06T13:07:04;6.10;;;3.80;;
12818;SDS011;6474;53.474;9.894;2023-05-06T13:09:32;3.33;;;3.13;;
12818;SDS011;6474;53.474;9.894;2023-05-06T13:12:00;5.60;;;3.80;;
12818;SDS011;6474;53.474;9.894;2023-05-06T13:14:28;5.73;;;3.97;;
12818;SDS011;6474;53.474;9.894;2023-05-06T13:16:56;4.00;;;3.60;;
12818;SDS011;6474;53.474;9.894;2023-05-06T13:19:28;3.90;;;3.30;;
12818;SDS011;6474;53.474;9.894;2023-05-06T13:21:58;4.13;;;3.53;;
12818;SDS011;6474;53.474;9.894;2023-05-06T13:24:26;5.23;;;3.57;;
12818;SDS011;6474;53.474;9.894;2023-05-06T13:26:54;4.43;;;3.13;;
12818;SDS011;6474;53.474;9.894;2023-05-06T13:29:25;4.07;;;3.77;;
12818;SDS011;6474;53.474;9.894;2023-05-06T13:31:53;4.47;;;3.67;;
12818;SDS011;6474;53.474;9.894;2023-05-06T13:34:21;3.43;;;3.13;;
12818;SDS011;6474;53.474;9.894;2023-05-06T13:36:50;3.73;;;3.43;;
12818;SDS011;6474;53.474;9.894;2023-05-06T13:39:19;4.47;;;3.70;;
12818;SDS011;6474;53.474;9.894;2023-05-06T13:41:49;6.30;;;3.50;;
12818;SDS011;6474;53.474;9.894;2023-05-06T13:44:19;5.73;;;3.37;;
12818;SDS011;6474;53.474;9.894;2023-05-06T13:46:47;5.83;;;3.50;;
12818;SDS011;6474;53.474;9.894;2023-05-06T13:49:16;4.13;;;3.73;;
12818;SDS011;6474;53.474;9.894;2023-05-06T13:51:44;4.23;;;3.50;;
12818;SDS011;6474;53.474;9.894;2023-05-06T13:54:13;4.53;;;3.93;;
12818;SDS011;6474;53.474;9.894;2023-05-06T13:56:41;5.83;;;3.53;;
12818;SDS011;6474;53.474;9.894;2023-05-06T13:59:09;5.17;;;4.20;;
12818;SDS011;6474;53.474;9.894;2023-05-06T14:01:39;8.27;;;3.23;;
12818;SDS011;6474;53.474;9.894;2023-05-06T14:04:07;3.40;;;3.10;;
12818;SDS011;6474;53.474;9.894;2023-05-06T14:06:35;6.37;;;4.30;;
12818;SDS011;6474;53.474;9.894;2023-05-06T14:09:04;5.93;;;4.07;;
12818;SDS011;6474;53.474;9.894;2023-05-06T14:11:33;3.53;;;3.23;;
12818;SDS011;6474;53.474;9.894;2023-05-06T14:14:01;4.73;;;3.60;;
12818;SDS011;6474;53.474;9.894;2023-05-06T14:16:29;5.63;;;4.17;;
12818;SDS011;6474;53.474;9.894;2023-05-06T14:18:57;4.00;;;3.70;;
12818;SDS011;6474;53.474;9.894;2023-05-06T14:21:25;5.40;;;4.23;;
12818;SDS011;6474;53.474;9.894;2023-05-06T14:23:53;7.93;;;3.83;;
12818;SDS011;6474;53.474;9.894;2023-05-06T14:26:21;7.97;;;3.57;;
12818;SDS011;6474;53.474;9.894;2023-05-06T14:28:50;6.43;;;3.63;;
12818;SDS011;6474;53.474;9.894;2023-05-06T14:31:18;3.37;;;3.17;;
12818;SDS011;6474;53.474;9.894;2023-05-06T14:33:46;4.03;;;3.67;;
12818;SDS011;6474;53.474;9.894;2023-05-06T14:36:16;3.90;;;3.53;;
12818;SDS011;6474;53.474;9.894;2023-05-06T14:38:44;3.57;;;3.27;;
12818;SDS011;6474;53.474;9.894;2023-05-06T14:41:12;3.77;;;3.37;;
12818;SDS011;6474;53.474;9.894;2023-05-06T14:43:40;3.83;;;3.53;;
12818;SDS011;6474;53.474;9.894;2023-05-06T14:46:09;3.93;;;3.57;;
12818;SDS011;6474;53.474;9.894;2023-05-06T14:48:39;3.77;;;2.87;;
12818;SDS011;6474;53.474;9.894;2023-05-06T14:51:08;3.13;;;2.80;;
12818;SDS011;6474;53.474;9.894;2023-05-06T14:53:36;5.53;;;3.87;;
12818;SDS011;6474;53.474;9.894;2023-05-06T14:56:06;5.40;;;3.77;;
12818;SDS011;6474;53.474;9.894;2023-05-06T14:58:37;5.20;;;3.33;;
12818;SDS011;6474;53.474;9.894;2023-05-06T15:01:05;3.20;;;3.00;;
12818;SDS011;6474;53.474;9.894;2023-05-06T15:03:34;4.00;;;3.43;;
12818;SDS011;6474;53.474;9.894;2023-05-06T15:06:02;3.27;;;2.97;;
12818;SDS011;6474;53.474;9.894;2023-05-06T15:08:31;4.47;;;3.43;;
12818;SDS011;6474;53.474;9.894;2023-05-06T15:10:59;3.17;;;2.97;;
12818;SDS011;6474;53.474;9.894;2023-05-06T15:13:29;4.50;;;3.40;;